Terminal Aerodrome Forecast
Issued by NWS Bismarck, ND

Home | Current Version | Previous Version | Graphics & Text | Print | Product List | Glossary On
Versions: 1 2 3 4 5 6 7 8 9 10 11 12 13 14 15 16 17 18 19 20 21 22 23 24 25 26
436
FTUS43 KBIS 310530
TAFBIS
TAF
KBIS 310530Z 3106/0106 29013KT P6SM BKN035
     FM311000 27014KT P6SM SCT150
     FM311500 25016G24KT P6SM OVC025
     FM312100 29016G25KT P6SM -SHRA VCTS OVC015CB
     FM010200 30017G25KT P6SM OVC008=

USA.gov is the U.S. government's official web portal to all federal, state and local government web resources and services.